Time;durP1;ratioP1;P1;durP2;ratioP2;P2;SDS_P1;SDS_P2;PMS_P1;PMS_P2;Temp;Humidity;BMP_temperature;BMP_pressure;BME280_temperature;BME280_humidity;BME280_pressure;Samples;Min_cycle;Max_cycle;Signal;HPM_P1;HPM_P2
2022/01/16 00:00:26;;;;;;;88.77;32.07;;;2.10;98.80;;;;;;5057445;28;20564;-44
2022/01/16 00:05:38;;;;;;;59.43;24.20;;;2.00;99.10;;;;;;5062783;28;20561;-45
2022/01/16 00:08:05;;;;;;;62.97;24.33;;;2.10;98.80;;;;;;5060445;28;20795;-44
2022/01/16 00:10:32;;;;;;;70.00;26.43;;;2.10;98.60;;;;;;5058618;28;21094;-45
2022/01/16 00:13:00;;;;;;;75.57;30.10;;;2.10;98.60;;;;;;5084145;27;21056;-44
2022/01/16 00:15:27;;;;;;;93.53;32.47;;;1.90;98.90;;;;;;5075515;27;20491;-44
2022/01/16 00:17:57;;;;;;;92.07;32.40;;;1.80;99.10;;;;;;5078110;27;20472;-45
2022/01/16 00:20:25;;;;;;;102.10;35.13;;;1.70;99.30;;;;;;5050886;28;21051;-44
2022/01/16 00:22:52;;;;;;;92.33;30.30;;;1.70;99.60;;;;;;5080572;27;20568;-45
2022/01/16 00:25:19;;;;;;;56.07;20.93;;;1.80;99.80;;;;;;5077497;28;20833;-44
2022/01/16 00:27:46;;;;;;;68.90;25.77;;;1.90;99.60;;;;;;5057043;28;20477;-44
2022/01/16 00:30:15;;;;;;;74.40;25.63;;;2.10;99.20;;;;;;5060068;28;20478;-44
2022/01/16 00:32:42;;;;;;;64.83;24.13;;;2.10;99.20;;;;;;5049469;28;20525;-44
2022/01/16 00:35:11;;;;;;;64.50;22.30;;;2.10;98.70;;;;;;5073997;27;20488;-46
2022/01/16 00:37:38;;;;;;;84.60;31.83;;;2.10;98.90;;;;;;5069162;27;20478;-45
2022/01/16 00:40:07;;;;;;;62.07;24.00;;;2.00;99.10;;;;;;5094586;27;20532;-44
2022/01/16 00:42:34;;;;;;;53.47;20.63;;;2.10;99.10;;;;;;5066612;28;20849;-45
2022/01/16 00:45:06;;;;;;;65.17;21.77;;;2.00;98.80;;;;;;5065348;28;20493;-45
2022/01/16 00:47:35;;;;;;;86.50;29.37;;;2.10;99.00;;;;;;5073871;27;20814;-48
2022/01/16 00:50:01;;;;;;;74.17;25.40;;;2.00;98.80;;;;;;5082301;27;20483;-44
2022/01/16 00:52:28;;;;;;;75.03;27.80;;;2.00;98.90;;;;;;5094542;27;20856;-44
2022/01/16 00:54:58;;;;;;;64.57;24.17;;;1.90;98.80;;;;;;5080669;27;20493;-45
2022/01/16 00:57:26;;;;;;;64.63;23.23;;;1.90;99.10;;;;;;5080213;27;20487;-44
2022/01/16 00:59:53;;;;;;;70.03;27.90;;;1.80;99.00;;;;;;5070829;28;20480;-45
2022/01/16 01:02:20;;;;;;;67.60;24.43;;;1.90;99.30;;;;;;5071724;28;20485;-44
2022/01/16 01:04:48;;;;;;;92.87;29.10;;;1.80;99.10;;;;;;5063949;28;20485;-45
2022/01/16 01:07:15;;;;;;;75.77;25.77;;;1.90;99.40;;;;;;5081303;27;20847;-44
2022/01/16 01:09:41;;;;;;;98.03;33.43;;;1.90;99.10;;;;;;5072503;27;20474;-46
2022/01/16 01:12:12;;;;;;;75.63;27.63;;;1.90;99.30;;;;;;5059335;28;20951;-44
2022/01/16 01:14:40;;;;;;;65.43;25.97;;;1.90;99.40;;;;;;5057551;28;20481;-44
2022/01/16 01:17:09;;;;;;;60.20;23.43;;;1.90;99.30;;;;;;5064262;28;20497;-44
2022/01/16 01:19:37;;;;;;;87.70;31.20;;;1.90;99.40;;;;;;5067632;28;20470;-44
2022/01/16 01:22:06;;;;;;;83.27;30.20;;;1.90;99.30;;;;;;5089260;27;20482;-44
2022/01/16 01:24:35;;;;;;;75.53;29.80;;;1.90;99.40;;;;;;5078219;27;20491;-44
2022/01/16 01:27:07;;;;;;;75.60;25.50;;;1.90;99.40;;;;;;5071213;28;20485;-44
2022/01/16 01:29:35;;;;;;;88.80;32.90;;;1.90;99.20;;;;;;5071136;28;21039;-44
2022/01/16 01:32:02;;;;;;;85.50;28.73;;;1.90;99.50;;;;;;5056430;27;20903;-44
2022/01/16 01:34:30;;;;;;;92.33;33.93;;;1.80;99.30;;;;;;5085650;27;20476;-44
2022/01/16 01:36:57;;;;;;;72.30;29.03;;;1.80;99.10;;;;;;5068688;28;20482;-44
2022/01/16 01:39:25;;;;;;;107.03;43.40;;;;;;;;;;5060417;28;20474;-45
2022/01/16 01:42:03;;;;;;;121.73;50.90;;;1.50;99.10;;;;;;5065402;27;20520;-44
2022/01/16 01:52:42;;;;;;;57.23;21.73;;;1.20;99.10;;;;;;5080903;27;20523;-44
2022/01/16 01:55:12;;;;;;;84.57;36.40;;;1.20;98.90;;;;;;5069129;27;21032;-44
2022/01/16 01:57:39;;;;;;;71.83;30.10;;;1.10;98.80;;;;;;5089552;27;20690;-45
2022/01/16 02:00:08;;;;;;;50.77;19.87;;;1.20;99.00;;;;;;5067963;27;20495;-44
2022/01/16 02:02:45;;;;;;;75.87;29.07;;;1.20;98.90;;;;;;5082944;27;20901;-44
2022/01/16 02:05:12;;;;;;;44.97;17.90;;;1.20;99.00;;;;;;5069203;27;21734;-44
2022/01/16 02:07:39;;;;;;;50.23;18.63;;;1.20;98.90;;;;;;5086211;27;20473;-44
2022/01/16 02:10:06;;;;;;;37.87;16.27;;;1.30;99.00;;;;;;5052777;28;20494;-44
2022/01/16 02:12:37;;;;;;;39.77;18.10;;;1.30;99.00;;;;;;5069988;27;21161;-45
2022/01/16 02:15:28;;;;;;;53.73;21.33;;;1.30;98.80;;;;;;5069720;27;20485;-44
2022/01/16 02:27:59;;;;;;;61.33;18.80;;;1.30;98.70;;;;;;5058295;27;20537;-43
2022/01/16 02:29:44;;;;;;;48.00;20.93;;;1.20;98.60;;;;;;5067856;28;20481;-44
2022/01/16 02:32:28;;;;;;;56.67;24.97;;;1.10;98.60;;;;;;5063611;28;20828;-44
2022/01/16 02:34:55;;;;;;;40.20;16.37;;;1.10;98.90;;;;;;5053864;28;20485;-44
2022/01/16 02:37:24;;;;;;;42.90;19.37;;;1.10;98.90;;;;;;5088749;27;20484;-44
2022/01/16 02:39:54;;;;;;;49.33;22.30;;;1.20;98.80;;;;;;5071967;28;20561;-44
2022/01/16 02:42:26;;;;;;;55.33;22.80;;;1.00;98.70;;;;;;5068762;28;20993;-44
2022/01/16 02:45:01;;;;;;;66.00;30.27;;;1.10;99.20;;;;;;5089486;27;20906;-46
2022/01/16 02:47:28;;;;;;;43.67;19.13;;;0.90;98.70;;;;;;5069527;28;20835;-44
2022/01/16 02:49:55;;;;;;;62.63;23.70;;;0.90;98.90;;;;;;5067242;28;20469;-44
2022/01/16 02:52:22;;;;;;;56.83;25.37;;;0.90;98.80;;;;;;5073983;27;20491;-44
2022/01/16 02:54:54;;;;;;;68.53;24.53;;;0.80;98.80;;;;;;5061284;28;20477;-44
2022/01/16 02:57:22;;;;;;;45.80;19.50;;;0.60;99.20;;;;;;5065807;28;20483;-44
2022/01/16 02:59:54;;;;;;;83.87;34.03;;;0.60;99.20;;;;;;5066834;28;20719;-44
2022/01/16 03:02:25;;;;;;;103.40;44.73;;;0.50;99.30;;;;;;5063516;28;20582;-44
2022/01/16 03:04:52;;;;;;;30.67;14.30;;;0.50;99.60;;;;;;5064000;28;20567;-44
2022/01/16 03:07:19;;;;;;;101.37;39.03;;;0.50;99.40;;;;;;5069787;27;20723;-44
2022/01/16 03:10:06;;;;;;;102.63;41.00;;;0.50;99.30;;;;;;5082636;27;20479;-45
2022/01/16 03:12:34;;;;;;;111.10;46.87;;;0.40;99.40;;;;;;5063474;28;21025;-44
2022/01/16 03:15:01;;;;;;;51.10;21.30;;;0.40;99.70;;;;;;5071402;28;20498;-44
2022/01/16 03:17:37;;;;;;;42.80;17.80;;;0.50;99.50;;;;;;5063165;28;20474;-44
2022/01/16 03:22:49;;;;;;;68.50;26.30;;;0.60;99.60;;;;;;5063571;28;20473;-44
2022/01/16 03:25:16;;;;;;;45.27;18.73;;;0.50;99.20;;;;;;5069343;28;20484;-43
2022/01/16 03:27:44;;;;;;;59.03;20.87;;;0.60;99.30;;;;;;5069155;28;21333;-43
2022/01/16 03:30:12;;;;;;;23.97;11.77;;;0.60;99.20;;;;;;5062290;27;20475;-44
2022/01/16 03:32:38;;;;;;;56.50;21.97;;;0.70;99.30;;;;;;5076952;27;20711;-44
2022/01/16 03:35:06;;;;;;;65.60;25.63;;;0.80;99.20;;;;;;5067771;27;20488;-44
2022/01/16 03:37:33;;;;;;;83.30;30.17;;;0.80;98.90;;;;;;5073305;27;20477;-44
2022/01/16 03:40:00;;;;;;;55.13;20.10;;;0.80;98.80;;;;;;5073600;28;20481;-44
2022/01/16 03:42:30;;;;;;;78.70;28.23;;;0.70;98.80;;;;;;5083525;28;20482;-44
2022/01/16 03:44:58;;;;;;;42.13;19.43;;;0.80;99.30;;;;;;5074466;28;21088;-44
2022/01/16 03:47:24;;;;;;;44.57;18.57;;;0.80;99.10;;;;;;5070935;28;20478;-43
2022/01/16 03:49:51;;;;;;;39.00;15.87;;;0.80;99.10;;;;;;5079458;28;20484;-43
2022/01/16 03:52:18;;;;;;;47.13;20.07;;;0.80;99.20;;;;;;5076433;28;20477;-44
2022/01/16 03:54:45;;;;;;;77.80;32.00;;;0.80;99.20;;;;;;5064502;28;20561;-44
2022/01/16 03:57:11;;;;;;;118.03;32.20;;;0.70;99.20;;;;;;5074386;28;20482;-44
2022/01/16 03:59:38;;;;;;;86.93;32.40;;;0.70;99.40;;;;;;5070620;28;20489;-44
2022/01/16 04:02:07;;;;;;;149.03;32.57;;;0.70;99.60;;;;;;5083084;28;20488;-44
2022/01/16 04:04:33;;;;;;;133.17;42.87;;;0.50;99.50;;;;;;5069966;28;20481;-44
2022/01/16 04:07:01;;;;;;;104.03;24.50;;;0.50;99.90;;;;;;5071479;28;20503;-43
2022/01/16 04:09:28;;;;;;;88.77;21.57;;;;;;;;;;5055563;28;20588;-43
2022/01/16 04:11:57;;;;;;;99.50;31.77;;;0.60;99.90;;;;;;5073389;28;20485;-44
2022/01/16 04:15:31;;;;;;;182.60;42.67;;;0.60;99.90;;;;;;5066928;28;21088;-44
2022/01/16 04:17:17;;;;;;;147.07;39.77;;;0.60;99.70;;;;;;5064082;28;20574;-44
2022/01/16 04:19:44;;;;;;;95.47;30.67;;;0.60;99.70;;;;;;5081829;28;20569;-44
2022/01/16 04:22:11;;;;;;;179.03;49.03;;;0.60;99.90;;;;;;5083878;28;21150;-44
2022/01/16 04:24:38;;;;;;;119.23;34.33;;;0.60;99.90;;;;;;5079813;28;20480;-44
2022/01/16 04:27:05;;;;;;;131.20;45.10;;;0.50;99.90;;;;;;5069499;28;21016;-44
2022/01/16 04:29:32;;;;;;;79.13;23.30;;;0.40;99.90;;;;;;5073275;28;20476;-44
2022/01/16 04:31:59;;;;;;;141.27;46.70;;;0.40;99.90;;;;;;5063899;27;20867;-44
2022/01/16 04:34:27;;;;;;;57.83;22.50;;;0.40;99.90;;;;;;5096917;27;20500;-44
2022/01/16 04:36:54;;;;;;;27.37;13.83;;;0.50;99.90;;;;;;5079530;28;21081;-44
2022/01/16 04:39:21;;;;;;;58.93;18.47;;;0.60;99.90;;;;;;5076883;27;21008;-44
2022/01/16 04:44:33;;;;;;;32.27;13.77;;;0.70;99.90;;;;;;5083168;28;20479;-44
2022/01/16 04:47:00;;;;;;;44.87;19.77;;;0.70;99.80;;;;;;5079667;28;20479;-42
2022/01/16 04:49:28;;;;;;;40.67;17.00;;;;;;;;;;5078625;28;20857;-43
2022/01/16 04:51:55;;;;;;;27.00;14.43;;;0.80;99.50;;;;;;5077839;28;20546;-44
2022/01/16 04:54:22;;;;;;;32.07;13.97;;;0.80;99.50;;;;;;5079449;28;20564;-44
2022/01/16 04:56:49;;;;;;;69.20;25.73;;;0.90;99.50;;;;;;5075434;28;20477;-44
2022/01/16 04:59:16;;;;;;;41.83;17.70;;;0.90;99.50;;;;;;5083423;28;20560;-43
2022/01/16 05:01:43;;;;;;;83.57;30.00;;;0.90;99.50;;;;;;5078202;28;22118;-43
2022/01/16 05:04:09;;;;;;;50.87;17.50;;;0.90;99.50;;;;;;5067100;28;20477;-43
2022/01/16 05:06:37;;;;;;;56.83;23.83;;;1.00;99.60;;;;;;5091659;28;21017;-43
2022/01/16 05:09:04;;;;;;;29.33;15.73;;;1.00;99.40;;;;;;5079152;28;21186;-43
2022/01/16 05:11:31;;;;;;;39.03;19.27;;;0.90;99.40;;;;;;5076924;28;20486;-43
2022/01/16 05:16:43;;;;;;;45.87;18.60;;;0.80;99.50;;;;;;5083382;28;20509;-44
2022/01/16 05:19:13;;;;;;;66.90;21.93;;;0.80;99.70;;;;;;5080783;28;20534;-44
2022/01/16 05:21:42;;;;;;;36.90;16.63;;;0.80;99.80;;;;;;5080814;28;20488;-43
2022/01/16 05:24:11;;;;;;;51.03;20.67;;;0.80;99.80;;;;;;5075950;28;20546;-44
2022/01/16 05:26:40;;;;;;;65.40;23.87;;;0.70;99.70;;;;;;5074128;28;20636;-44
2022/01/16 05:29:07;;;;;;;62.00;21.70;;;0.60;99.60;;;;;;5085733;28;20477;-44
2022/01/16 05:31:34;;;;;;;31.73;16.10;;;0.60;99.80;;;;;;5073395;28;20516;-44
2022/01/16 05:34:01;;;;;;;67.83;28.67;;;0.60;99.70;;;;;;5075278;28;21132;-43
2022/01/16 05:36:28;;;;;;;98.17;34.87;;;0.50;99.90;;;;;;5093215;27;20481;-43
2022/01/16 05:38:56;;;;;;;36.27;16.57;;;0.60;99.90;;;;;;5074394;28;20789;-44
2022/01/16 05:41:23;;;;;;;48.80;20.10;;;0.60;99.90;;;;;;5075921;27;20488;-43
2022/01/16 05:43:52;;;;;;;24.80;10.60;;;0.70;99.90;;;;;;5104939;27;20588;-43
2022/01/16 05:46:18;;;;;;;39.87;18.70;;;0.70;99.70;;;;;;5083477;28;21014;-43
2022/01/16 05:48:45;;;;;;;44.57;22.20;;;0.70;99.60;;;;;;5070729;28;20481;-43
2022/01/16 05:51:12;;;;;;;75.17;31.77;;;0.70;99.60;;;;;;5068611;27;20472;-48
2022/01/16 05:53:39;;;;;;;55.03;23.93;;;0.70;99.90;;;;;;5091894;27;20901;-44
2022/01/16 05:56:07;;;;;;;34.77;14.87;;;0.70;99.80;;;;;;5073351;28;20967;-43
2022/01/16 05:58:34;;;;;;;48.93;19.83;;;0.70;99.70;;;;;;5081332;28;20547;-44
2022/01/16 06:01:01;;;;;;;33.57;19.00;;;0.70;99.60;;;;;;5075747;28;20570;-43
2022/01/16 06:03:27;;;;;;;66.33;25.20;;;0.80;99.70;;;;;;5085007;27;20778;-43
2022/01/16 06:05:54;;;;;;;52.87;22.63;;;0.80;99.80;;;;;;5090394;27;20482;-44
2022/01/16 06:08:21;;;;;;;67.50;27.60;;;0.90;99.80;;;;;;5089761;27;20485;-44
2022/01/16 06:10:47;;;;;;;65.80;25.17;;;0.80;99.60;;;;;;5093905;27;20479;-44
2022/01/16 06:13:16;;;;;;;63.17;18.97;;;0.80;99.70;;;;;;5080639;27;20513;-44
2022/01/16 06:15:42;;;;;;;60.93;22.67;;;0.90;99.80;;;;;;5077553;28;22146;-44
2022/01/16 06:18:09;;;;;;;71.43;24.47;;;0.90;99.90;;;;;;5073653;28;20541;-43
2022/01/16 06:20:36;;;;;;;65.83;29.43;;;1.00;99.90;;;;;;5098609;27;20986;-44
2022/01/16 06:23:03;;;;;;;60.30;29.27;;;1.10;99.90;;;;;;5083642;27;20480;-44
2022/01/16 06:25:30;;;;;;;78.90;30.70;;;1.20;99.80;;;;;;5063809;28;20487;-44
2022/01/16 06:27:57;;;;;;;89.17;31.77;;;1.20;99.70;;;;;;5088751;28;20473;-49
2022/01/16 06:30:25;;;;;;;84.57;31.57;;;1.20;99.70;;;;;;5078911;28;20469;-44
2022/01/16 06:32:52;;;;;;;62.47;23.20;;;1.20;99.60;;;;;;5072838;28;20801;-43
2022/01/16 06:35:18;;;;;;;59.20;26.50;;;1.30;99.40;;;;;;5068959;28;20477;-44
2022/01/16 06:37:45;;;;;;;72.50;27.83;;;1.20;99.50;;;;;;5076153;28;20512;-43
2022/01/16 06:40:14;;;;;;;66.10;27.30;;;1.20;99.50;;;;;;5069647;28;21029;-43
2022/01/16 06:42:42;;;;;;;50.27;20.00;;;1.20;99.40;;;;;;5084302;28;20826;-44
2022/01/16 06:45:10;;;;;;;76.10;29.87;;;1.20;99.60;;;;;;5060662;28;20551;-43
2022/01/16 06:47:39;;;;;;;69.20;25.83;;;1.20;99.70;;;;;;5076037;28;20498;-44
2022/01/16 06:50:08;;;;;;;77.87;30.53;;;1.20;99.70;;;;;;5083585;28;20489;-44
2022/01/16 06:52:35;;;;;;;131.50;43.77;;;1.10;99.70;;;;;;5064777;27;20493;-44
2022/01/16 06:55:02;;;;;;;95.23;38.20;;;1.10;99.90;;;;;;5091212;27;21000;-44
2022/01/16 06:57:29;;;;;;;82.23;29.30;;;0.90;99.90;;;;;;5090084;27;20489;-44
2022/01/16 06:59:55;;;;;;;85.27;28.93;;;1.10;99.90;;;;;;5069678;28;20482;-44
2022/01/16 07:02:22;;;;;;;52.83;22.33;;;1.20;99.90;;;;;;5076268;28;20547;-44
2022/01/16 07:04:50;;;;;;;84.73;34.03;;;1.10;99.90;;;;;;5065488;28;20562;-44
2022/01/16 07:07:17;;;;;;;108.53;35.83;;;1.10;99.90;;;;;;5091313;28;20482;-44
2022/01/16 07:09:44;;;;;;;61.33;26.87;;;1.10;99.90;;;;;;5070111;28;20479;-44
2022/01/16 07:12:11;;;;;;;86.57;33.20;;;1.10;99.90;;;;;;5070269;28;20489;-44
2022/01/16 07:14:38;;;;;;;96.23;38.70;;;1.10;99.90;;;;;;5068939;28;20477;-43
2022/01/16 07:17:05;;;;;;;75.83;30.00;;;1.00;99.90;;;;;;5066792;28;20543;-45
2022/01/16 07:19:32;;;;;;;97.73;28.43;;;1.00;99.90;;;;;;5074659;28;20489;-44
2022/01/16 07:22:00;;;;;;;81.33;26.53;;;1.00;99.90;;;;;;5078852;28;20875;-44
2022/01/16 07:24:26;;;;;;;75.57;29.10;;;0.90;99.90;;;;;;5078042;28;20490;-44
2022/01/16 07:26:54;;;;;;;73.10;28.93;;;0.90;99.90;;;;;;5080635;27;20472;-45
2022/01/16 07:29:21;;;;;;;107.13;37.47;;;0.90;99.90;;;;;;5082933;27;21215;-45
2022/01/16 07:31:47;;;;;;;192.27;68.57;;;0.90;99.90;;;;;;5078409;28;21077;-45
2022/01/16 07:34:14;;;;;;;45.83;22.80;;;0.90;99.90;;;;;;5107755;27;20495;-44
2022/01/16 07:36:41;;;;;;;92.30;32.20;;;0.80;99.90;;;;;;5078351;28;20528;-44
2022/01/16 07:39:09;;;;;;;223.37;60.83;;;0.90;99.90;;;;;;5077666;28;20475;-44
2022/01/16 07:41:37;;;;;;;53.73;23.37;;;0.90;99.90;;;;;;5080713;28;20979;-44
2022/01/16 07:44:04;;;;;;;96.47;34.90;;;0.90;99.90;;;;;;5076737;28;20495;-44
2022/01/16 07:46:31;;;;;;;51.80;22.40;;;1.00;99.90;;;;;;5070371;28;21266;-44
2022/01/16 07:48:58;;;;;;;95.30;34.87;;;1.00;99.90;;;;;;5087865;27;21014;-44
2022/01/16 07:51:25;;;;;;;72.07;25.50;;;1.10;99.90;;;;;;5074217;28;21184;-45
2022/01/16 07:53:53;;;;;;;51.07;23.27;;;1.10;99.90;;;;;;5071712;28;20559;-44
2022/01/16 07:56:21;;;;;;;179.07;55.70;;;1.00;99.90;;;;;;5059841;28;20505;-44
2022/01/16 07:58:47;;;;;;;125.87;40.53;;;1.00;99.90;;;;;;5078977;28;20952;-44
2022/01/16 08:01:14;;;;;;;77.53;31.07;;;1.10;99.90;;;;;;5074831;28;20511;-44
2022/01/16 08:03:41;;;;;;;51.37;23.73;;;1.10;99.90;;;;;;5094085;28;20486;-44
2022/01/16 08:06:10;;;;;;;51.97;16.97;;;1.20;99.90;;;;;;5054801;28;20489;-44
2022/01/16 08:08:37;;;;;;;73.80;28.93;;;1.20;99.90;;;;;;5093605;28;20898;-44
2022/01/16 08:11:04;;;;;;;107.67;36.60;;;;;;;;;;5072276;28;20510;-44
2022/01/16 08:13:32;;;;;;;117.20;39.23;;;1.10;99.90;;;;;;5073192;28;20500;-44
2022/01/16 08:15:59;;;;;;;58.23;25.70;;;1.10;99.90;;;;;;5076022;28;20956;-44
2022/01/16 08:18:26;;;;;;;74.77;29.27;;;;;;;;;;5068274;28;20484;-44
2022/01/16 08:20:53;;;;;;;67.40;25.27;;;1.20;99.90;;;;;;5076528;28;21051;-45
2022/01/16 08:23:19;;;;;;;92.43;32.30;;;1.10;99.90;;;;;;5064499;28;20486;-44
2022/01/16 08:25:46;;;;;;;92.60;32.03;;;;;;;;;;5081826;28;20565;-44
2022/01/16 08:28:14;;;;;;;75.70;30.60;;;1.20;99.90;;;;;;5070269;28;20470;-44
2022/01/16 08:30:42;;;;;;;77.47;29.27;;;1.20;99.90;;;;;;5079145;28;20979;-47
2022/01/16 08:33:09;;;;;;;83.43;31.13;;;1.30;99.90;;;;;;5091068;28;21187;-44
2022/01/16 08:35:36;;;;;;;64.70;29.73;;;1.20;99.90;;;;;;5075830;28;20493;-44
2022/01/16 08:38:03;;;;;;;44.47;16.77;;;1.30;99.90;;;;;;5064627;28;20480;-44
2022/01/16 08:40:30;;;;;;;163.93;51.03;;;1.30;99.90;;;;;;5064928;28;20495;-44
2022/01/16 08:42:57;;;;;;;96.70;35.17;;;1.40;99.90;;;;;;5094520;28;20897;-44
2022/01/16 08:45:23;;;;;;;83.57;31.30;;;1.40;99.90;;;;;;5079665;28;21074;-44
2022/01/16 08:47:53;;;;;;;66.07;21.40;;;1.50;99.90;;;;;;5077445;28;20506;-44
2022/01/16 08:50:19;;;;;;;84.60;30.10;;;1.60;99.90;;;;;;5071595;28;20537;-44
2022/01/16 08:52:48;;;;;;;70.23;27.53;;;1.60;99.90;;;;;;5077117;28;21414;-44
2022/01/16 08:55:15;;;;;;;69.17;29.30;;;1.60;99.90;;;;;;5077949;28;20510;-44
2022/01/16 08:57:42;;;;;;;135.17;43.13;;;1.60;99.90;;;;;;5073624;28;20484;-44
2022/01/16 09:00:10;;;;;;;55.80;21.03;;;1.60;99.90;;;;;;5074994;28;20512;-44
2022/01/16 09:02:36;;;;;;;76.67;26.80;;;1.60;99.90;;;;;;5067555;28;20488;-44
2022/01/16 09:05:06;;;;;;;65.60;24.50;;;1.70;99.90;;;;;;5076526;28;20495;-45
2022/01/16 09:07:33;;;;;;;56.90;25.37;;;1.70;99.90;;;;;;5081200;28;20824;-44
2022/01/16 09:10:00;;;;;;;76.83;27.40;;;1.60;99.90;;;;;;5073849;28;20486;-45
2022/01/16 09:12:28;;;;;;;61.07;24.53;;;1.60;99.90;;;;;;5075393;28;20470;-44
2022/01/16 09:14:54;;;;;;;136.77;47.47;;;1.60;99.90;;;;;;5075028;28;20485;-44
2022/01/16 09:17:21;;;;;;;253.13;63.03;;;1.60;99.90;;;;;;5080850;28;20485;-44
2022/01/16 09:19:48;;;;;;;89.87;21.23;;;1.60;99.90;;;;;;5080839;28;20485;-45
2022/01/16 09:22:16;;;;;;;95.73;32.00;;;1.60;99.90;;;;;;5078650;28;20486;-44
2022/01/16 09:24:43;;;;;;;44.80;18.60;;;1.60;99.90;;;;;;5077214;28;20576;-44
2022/01/16 09:27:10;;;;;;;110.33;37.47;;;1.70;99.90;;;;;;5078033;28;20486;-45
2022/01/16 09:29:36;;;;;;;77.03;27.07;;;1.60;99.90;;;;;;5097197;27;20490;-45
2022/01/16 09:32:05;;;;;;;102.63;38.03;;;1.60;99.90;;;;;;5082762;28;20478;-46
2022/01/16 09:34:32;;;;;;;77.87;29.20;;;1.60;99.90;;;;;;5079051;28;20502;-44
2022/01/16 09:37:01;;;;;;;148.37;38.07;;;;;;;;;;5074604;28;20489;-47
2022/01/16 09:39:29;;;;;;;150.80;31.13;;;1.80;99.90;;;;;;5070856;28;21226;-45
2022/01/16 09:41:56;;;;;;;63.53;24.50;;;1.80;99.90;;;;;;5104501;27;20477;-45
2022/01/16 09:44:23;;;;;;;93.97;33.77;;;1.80;99.90;;;;;;5078104;28;20485;-45
2022/01/16 09:46:50;;;;;;;62.13;22.33;;;;;;;;;;5078103;28;20549;-44
2022/01/16 09:49:18;;;;;;;103.00;38.30;;;1.80;99.90;;;;;;5080744;28;20545;-45
2022/01/16 09:51:45;;;;;;;43.40;16.10;;;1.90;99.90;;;;;;5071937;28;20477;-45
2022/01/16 09:54:13;;;;;;;75.37;31.47;;;1.90;99.90;;;;;;5073668;28;20488;-45
2022/01/16 09:56:41;;;;;;;67.33;26.07;;;1.90;99.90;;;;;;5070284;28;20478;-44
2022/01/16 09:59:08;;;;;;;72.63;28.13;;;2.00;99.90;;;;;;5080930;28;20485;-44
2022/01/16 10:01:35;;;;;;;62.23;22.47;;;2.00;99.90;;;;;;5082103;27;20497;-44
2022/01/16 10:04:02;;;;;;;68.17;22.03;;;2.00;99.90;;;;;;5088637;27;20615;-45
2022/01/16 10:06:28;;;;;;;65.03;22.40;;;2.00;99.90;;;;;;5064323;28;21013;-45
2022/01/16 10:08:55;;;;;;;73.40;25.80;;;2.00;99.90;;;;;;5087743;28;20484;-45
2022/01/16 10:11:25;;;;;;;78.57;25.47;;;2.10;99.90;;;;;;5076137;28;20974;-45
2022/01/16 10:13:59;;;;;;;59.30;23.33;;;2.10;99.90;;;;;;5078975;28;20475;-44
2022/01/16 10:16:28;;;;;;;57.20;20.97;;;2.10;99.90;;;;;;5062882;28;20480;-45
2022/01/16 10:18:55;;;;;;;36.10;14.60;;;2.20;99.90;;;;;;5082245;28;20483;-45
2022/01/16 10:21:34;;;;;;;65.80;23.47;;;2.10;99.90;;;;;;5066865;28;20494;-45
2022/01/16 10:24:14;;;;;;;100.00;30.23;;;2.10;99.90;;;;;;5061352;28;21050;-46
2022/01/16 10:26:42;;;;;;;134.13;32.83;;;2.10;99.90;;;;;;5075796;28;20485;-44
2022/01/16 10:29:15;;;;;;;54.97;20.37;;;2.10;99.90;;;;;;5068298;27;20471;-45
2022/01/16 10:31:42;;;;;;;44.03;19.40;;;2.10;99.90;;;;;;5068755;28;20570;-45
2022/01/16 10:34:25;;;;;;;95.87;31.73;;;2.10;99.90;;;;;;5088968;28;21714;-45
2022/01/16 10:36:52;;;;;;;121.17;39.43;;;2.00;99.90;;;;;;5071314;28;20496;-44
2022/01/16 10:39:19;;;;;;;94.93;32.23;;;2.00;99.90;;;;;;5085948;27;20483;-44
2022/01/16 10:41:46;;;;;;;53.97;16.90;;;2.10;99.90;;;;;;5090052;27;20524;-44
2022/01/16 10:44:38;;;;;;;62.40;24.10;;;2.00;99.90;;;;;;5073536;28;20589;-45
2022/01/16 10:47:27;;;;;;;119.30;41.83;;;2.00;99.90;;;;;;5064210;28;20591;-45
2022/01/16 10:50:15;;;;;;;47.37;20.17;;;;;;;;;;5095917;27;20492;-44
2022/01/16 10:52:51;;;;;;;100.47;31.43;;;2.10;99.90;;;;;;5047096;28;20488;-44
2022/01/16 10:55:20;;;;;;;256.30;50.57;;;2.10;99.90;;;;;;5076475;28;20494;-44
2022/01/16 10:57:47;;;;;;;89.93;30.83;;;2.10;99.90;;;;;;5077152;28;20581;-45
2022/01/16 11:00:18;;;;;;;91.97;25.17;;;2.10;99.90;;;;;;5082636;28;20484;-45
2022/01/16 11:02:47;;;;;;;56.77;22.83;;;2.10;99.90;;;;;;5066678;28;20985;-45
2022/01/16 11:05:15;;;;;;;82.73;28.80;;;2.10;99.90;;;;;;5089776;28;20577;-45
2022/01/16 11:07:43;;;;;;;46.70;17.13;;;2.10;99.90;;;;;;5075996;28;20486;-45
2022/01/16 11:10:26;;;;;;;49.97;16.60;;;2.20;99.90;;;;;;5075191;28;21010;-44
2022/01/16 11:12:55;;;;;;;131.47;38.93;;;2.10;99.90;;;;;;5082726;28;20976;-45
2022/01/16 11:15:23;;;;;;;146.43;41.90;;;2.20;99.90;;;;;;5078269;28;20475;-45
2022/01/16 11:17:50;;;;;;;63.67;26.20;;;2.20;99.90;;;;;;5070175;28;20880;-45
2022/01/16 11:20:22;;;;;;;89.43;31.20;;;2.30;99.90;;;;;;5072251;28;20819;-45
2022/01/16 11:25:44;;;;;;;54.57;18.43;;;2.30;99.90;;;;;;5038755;28;20533;-44
2022/01/16 11:28:14;;;;;;;146.07;45.53;;;2.30;99.90;;;;;;5073546;28;20467;-45
2022/01/16 11:30:45;;;;;;;79.73;25.23;;;2.30;99.90;;;;;;5072681;28;21026;-45
2022/01/16 11:33:12;;;;;;;55.87;20.43;;;2.30;99.90;;;;;;5056705;28;20953;-44
2022/01/16 11:35:45;;;;;;;85.80;29.20;;;2.30;99.90;;;;;;5088931;28;20481;-45
2022/01/16 11:38:12;;;;;;;124.27;43.93;;;2.30;99.90;;;;;;5073813;28;20483;-45
2022/01/16 11:40:45;;;;;;;89.10;32.60;;;2.30;99.90;;;;;;5073089;28;20477;-45
2022/01/16 11:43:34;;;;;;;87.20;32.93;;;2.40;99.90;;;;;;5075807;28;21026;-45
2022/01/16 11:46:20;;;;;;;78.97;28.80;;;2.40;99.90;;;;;;5053677;28;20485;-45
2022/01/16 11:48:55;;;;;;;51.63;21.87;;;2.30;99.90;;;;;;5075003;28;20494;-43
2022/01/16 11:51:59;;;;;;;104.53;37.87;;;2.30;99.90;;;;;;5071658;28;21183;-45
2022/01/16 11:54:31;;;;;;;132.43;37.23;;;2.40;99.90;;;;;;5077384;28;20484;-44
2022/01/16 11:57:03;;;;;;;60.23;21.60;;;2.30;99.90;;;;;;5070753;28;20520;-44
2022/01/16 11:59:38;;;;;;;81.23;31.67;;;2.40;99.90;;;;;;5074233;27;20544;-45
2022/01/16 12:02:23;;;;;;;82.90;28.50;;;2.30;99.90;;;;;;5095351;27;21169;-44
2022/01/16 12:05:01;;;;;;;85.67;26.50;;;2.30;99.90;;;;;;5071793;28;20478;-44
2022/01/16 12:07:47;;;;;;;47.63;17.50;;;2.40;99.90;;;;;;5073385;28;20944;-44
2022/01/16 12:10:54;;;;;;;126.67;45.93;;;2.30;99.90;;;;;;5059584;28;20512;-46
2022/01/16 12:13:52;;;;;;;69.17;22.00;;;2.30;99.90;;;;;;5070985;28;20533;-45
2022/01/16 12:16:43;;;;;;;75.60;27.73;;;2.30;99.90;;;;;;5067837;28;20476;-45
2022/01/16 12:19:35;;;;;;;109.47;33.67;;;2.30;99.90;;;;;;5079498;28;20518;-45
2022/01/16 12:22:02;;;;;;;88.93;31.30;;;;;;;;;;5072313;28;20463;-45
2022/01/16 12:24:40;;;;;;;52.97;20.30;;;2.30;99.90;;;;;;5065858;28;21047;-44
2022/01/16 12:27:30;;;;;;;83.03;28.27;;;2.30;99.90;;;;;;5090132;28;20498;-45
2022/01/16 12:30:26;;;;;;;40.37;16.90;;;2.40;99.90;;;;;;5059376;28;20481;-45
2022/01/16 12:32:55;;;;;;;51.73;18.80;;;2.40;99.90;;;;;;5046184;28;21280;-44
2022/01/16 12:36:10;;;;;;;95.03;32.33;;;2.40;99.90;;;;;;5048318;28;20548;-44
2022/01/16 12:38:44;;;;;;;118.37;41.30;;;2.40;99.90;;;;;;5058642;28;20495;-44
2022/01/16 12:41:14;;;;;;;67.53;25.40;;;2.30;99.90;;;;;;5043340;28;20485;-45
2022/01/16 12:43:47;;;;;;;98.77;35.80;;;2.40;99.90;;;;;;5061664;28;20485;-45
2022/01/16 12:46:17;;;;;;;41.87;15.80;;;2.50;99.90;;;;;;5054683;28;20514;-44
2022/01/16 12:48:45;;;;;;;49.03;18.60;;;2.50;99.90;;;;;;5046726;28;20485;-45
2022/01/16 12:51:15;;;;;;;45.10;17.27;;;2.50;99.90;;;;;;5038348;28;20469;-45
2022/01/16 12:53:44;;;;;;;105.70;39.57;;;2.40;99.90;;;;;;5054393;28;20478;-45
2022/01/16 12:56:19;;;;;;;67.10;25.13;;;2.40;99.90;;;;;;5066352;28;20493;-45
2022/01/16 12:58:46;;;;;;;107.53;38.43;;;2.40;99.90;;;;;;5058547;28;20486;-45
2022/01/16 13:01:14;;;;;;;60.43;24.17;;;2.50;99.90;;;;;;5047547;28;20482;-44
2022/01/16 13:03:42;;;;;;;74.50;29.77;;;2.50;99.90;;;;;;5061823;28;20470;-44
2022/01/16 13:06:23;;;;;;;66.03;26.30;;;2.60;99.90;;;;;;5065414;28;20544;-45
2022/01/16 13:09:00;;;;;;;72.97;29.27;;;2.60;99.90;;;;;;5081438;27;20479;-45
2022/01/16 13:11:29;;;;;;;95.13;37.03;;;2.70;99.90;;;;;;5041215;27;20487;-45
2022/01/16 13:13:57;;;;;;;60.47;26.20;;;2.60;99.90;;;;;;5061440;28;20492;-45
2022/01/16 13:16:26;;;;;;;100.40;38.33;;;2.70;99.90;;;;;;5052077;28;20481;-45
2022/01/16 13:19:16;;;;;;;68.40;23.07;;;2.60;99.90;;;;;;5060874;28;20619;-45
2022/01/16 13:21:48;;;;;;;73.90;28.27;;;2.60;99.90;;;;;;5054557;28;20478;-44